Portada
METAR-TAF:

METAR-TAF

Aeropuertos :

Fort Smith, Arkansas, Estados Unidos

latitud: 35-20-01N, longitud: 094-21-54W, altitud: 142 m

Observación

El informe se hizo hace 27 minutos, a las 15:53 UTC
Viento 8 kt del oeste
Temperatura 8°C
Humedad 66%
Presión 1027 hPa
Visibilidad: 16.1 km
Cielo despejado

METAR: KFSM 281553Z 28008KT 10SM CLR 08/02 A3033 RMK AO2 SLP272 T00830022

Hora: 10:20 (16:20 UTC)

Pronóstico

El informe se hizo hace 4 horas y 40 minutos, a las 11:40 UTC
Pronóstico válido del 28 a las 12 UTC al 29 a las 12 UTC
Viento 6 kt del oeste-noroeste
Visibilidad: 10 km
Cielo despejado
A partir de las 28 a las 1800 UTC
Viento 12 kt del oeste
Visibilidad: 10 km
Escasas nubes a una altura de 12000 ft
A partir de las 29 a las 0000 UTC
Viento 3 kt con dirección variable
Visibilidad: 10 km
Cielo despejado

TAF: KFSM 281140Z 2812/2912 30006KT P6SM SKC FM281800 28012KT P6SM FEW120 FM290000 VRB03KT P6SM SKC

Observaciones y pronósticos meteorológicos de más de 4000 aeropuertos (mensajes METAR y TAF).

Los puntos amarillos y rojos representan las estaciones disponibles.

Ponga el ratón en el punto deseado para ver el nombre de la estación.

Haga clic para ver las observaciones y los pronósticos meteorológicos.

Para cambiar el mapa : haga clic en los botones verdes con una cruz de color negro para hacer un zoom, en el botón verde con un guión para alejar o en las flechas verdes para mapas adyacentes.


METAR-TAF: